Flight Track Log - Related Links

Times and Time Zones

All times are in EDT time to prevent confusion due to time zone crossing. See the SWA193 flight status page for this flight to view local times or setup timezone preferences in your user account.

Time Position Orientation Groundspeed Altitude Reporting Facility
EDT Latitude Longitude Course Direction KTS MPH feet Rate Location/Type
Thu 06:58:50 AM 26.0581 -80.1431 93° East 140 161 800  Level Miami Center
Thu 06:59:26 AM 26.0567 -80.1108 93° East 201 231 1,700 2,598 Climbing Miami Center
Thu 07:00:27 AM 26.0994 -80.0703 40° Northeast 246 283 5,000 2,754 Climbing Miami Center
Thu 07:01:28 AM 26.1503 -80.1294 314° West 295 339 7,300 2,368 Climbing Miami Center
Thu 07:01:43 AM 26.1647 -80.1436 319° Northwest 307 353 8,000 1,280 Climbing Miami Center
Thu 07:02:43 AM 26.2111 -80.2167 305° West 312 359 8,900 1,000 Climbing Miami Center
Thu 07:03:43 AM 26.2492 -80.2758 306° West 300 345 10,000 1,550 Climbing Miami Center
Thu 07:04:43 AM 26.3117 -80.3772 305° West 321 369 12,000 2,200 Climbing Miami Center
Thu 07:05:43 AM 26.3697 -80.4739 304° West 359 413 14,400 2,650 Climbing Miami Center
Thu 07:06:43 AM 26.4214 -80.5800 299° West 391 450 17,300 2,500 Climbing Miami Center
Thu 07:07:43 AM 26.4769 -80.6908 299° West 402 463 19,400 2,200 Climbing Miami Center
Thu 07:08:43 AM 26.5347 -80.8042 300° West 408 470 21,700 2,150 Climbing Miami Center
Thu 07:09:43 AM 26.5919 -80.9175 299° West 423 487 23,700 2,000 Climbing Miami Center
Thu 07:10:43 AM 26.6514 -81.0333 300° West 428 493 25,700 1,800 Climbing Miami Center
Thu 07:11:43 AM 26.7006 -81.1419 297° West 428 493 27,300 1,600 Climbing Miami Center
Thu 07:12:43 AM 26.7425 -81.2692 290° West 433 498 28,900 2,200 Climbing Miami Center
Thu 07:13:43 AM 26.7844 -81.4033 289° West 424 488 31,700 2,350 Climbing Miami Center
Thu 07:14:43 AM 26.8244 -81.5211 291° West 414 476 33,600 1,650 Climbing Miami Center
Thu 07:15:43 AM 26.8583 -81.6389 288° West 409 471 35,000 1,150 Climbing Miami Center
Thu 07:16:43 AM 26.8942 -81.7522 290° West 401 461 35,900 450 Climbing Miami Center
Thu 07:17:43 AM 26.9300 -81.8678 289° West 395 455 35,900  Level Miami Center
Thu 07:18:43 AM 26.9656 -81.9789 290° West 388 447 35,900  Level Miami Center
Thu 07:19:43 AM 27.0011 -82.0944 289° West 393 452 35,900 50 Level Miami Center
Thu 07:20:43 AM 27.0389 -82.2033 291° West 388 447 36,000  Climbing Miami Center
Thu 07:21:43 AM 27.0664 -82.3050 287° West 389 448 35,900 -50 Descending Miami Center
Thu 07:22:43 AM 27.1058 -82.4211 291° West 389 448 35,900  Level Miami Center
Thu 07:23:43 AM 27.1369 -82.5344 287° West 389 448 35,900  Level Miami Center
Thu 07:24:43 AM 27.1742 -82.6506 290° West 389 448 35,900  Level Miami Center
Thu 07:25:43 AM 27.2092 -82.7619 289° West 389 448 35,900  Level Miami Center
Thu 07:26:43 AM 27.2442 -82.8758 289° West 389 448 35,900  Level Miami Center
Thu 07:27:43 AM 27.2789 -82.9919 289° West 394 453 35,900  Level Miami Center
Thu 07:28:43 AM 27.3136 -83.1061 289° West 394 453 35,900  Level Miami Center
Thu 07:29:43 AM 27.3503 -83.2225 290° West 389 448 35,900  Level Miami Center
Thu 07:30:43 AM 27.3828 -83.3342 288° West 389 448 35,900  Level Miami Center
Thu 07:31:43 AM 27.4172 -83.4506 288° West 389 448 35,900  Level Miami Center
Thu 07:32:43 AM 27.4517 -83.5625 289° West 389 448 35,900  Level Miami Center
Thu 07:33:43 AM 27.4881 -83.6792 289° West 389 448 35,900  Level Miami Center
Thu 07:34:43 AM 27.5222 -83.7933 289° West 389 448 35,900  Level Miami Center
Thu 07:36:16 AM 27.5778 -83.9764 289° West 392 451 35,900  Level Jacksonville Center
Thu 07:37:16 AM 27.6144 -84.0939 289° West 392 451 35,900  Level Jacksonville Center
Thu 07:38:16 AM 27.6425 -84.2067 286° West 387 445 35,900  Level Jacksonville Center
Thu 07:39:16 AM 27.6789 -84.3219 290° West 387 445 35,900  Level Jacksonville Center
Thu 07:40:16 AM 27.7131 -84.4372 289° West 387 445 35,900  Level Jacksonville Center
Thu 07:41:16 AM 27.7511 -84.5528 290° West 387 445 35,900  Level Jacksonville Center
Thu 07:42:16 AM 27.7850 -84.6658 289° West 387 445 35,900  Level Jacksonville Center
Thu 07:43:16 AM 27.8147 -84.7858 286° West 387 445 35,900  Level Jacksonville Center
Thu 07:44:16 AM 27.8486 -84.8944 289° West 392 451 35,900  Level Jacksonville Center
Thu 07:45:16 AM 27.8800 -85.0150 286° West 382 440 35,900  Level Jacksonville Center
Thu 07:46:16 AM 27.9156 -85.1258 290° West 382 440 35,900  Level Jacksonville Center
Thu 07:47:16 AM 27.9469 -85.2417 287° West 382 440 35,900  Level Jacksonville Center
Thu 07:48:16 AM 27.9950 -85.3533 296° West 390 449 35,900  Level Jacksonville Center
Thu 07:49:16 AM 28.0469 -85.4628 298° West 390 449 35,900  Level Jacksonville Center
Thu 07:50:16 AM 28.1033 -85.5678 301° West 390 449 35,900  Level Jacksonville Center
Thu 07:51:16 AM 28.1553 -85.6728 299° West 385 443 35,900  Level Jacksonville Center
Thu 07:52:16 AM 28.2072 -85.7800 299° West 390 449 35,900  Level Jacksonville Center
Thu 07:53:16 AM 28.2611 -85.8925 299° West 390 449 35,900  Level Jacksonville Center
Thu 07:54:16 AM 28.3128 -85.9928 300° West 390 449 35,900  Level Jacksonville Center
Thu 07:55:16 AM 28.3664 -86.1031 299° West 390 449 35,900  Level Jacksonville Center
Thu 07:56:16 AM 28.4200 -86.2108 300° West 390 449 35,900  Level Jacksonville Center
Thu 07:57:16 AM 28.4717 -86.3142 300° West 390 449 35,900  Level Jacksonville Center
Thu 07:58:16 AM 28.5231 -86.4222 298° West 390 449 35,900  Level Jacksonville Center
Thu 07:59:16 AM 28.5764 -86.5306 299° West 390 449 35,900  Level Jacksonville Center
Thu 08:00:16 AM 28.6294 -86.6411 299° West 395 455 35,900  Level Jacksonville Center
Thu 08:01:16 AM 28.6786 -86.7425 299° West 390 449 35,900  Level Jacksonville Center
Thu 08:02:16 AM 28.7317 -86.8533 299° West 390 449 35,900  Level Jacksonville Center
Thu 08:03:16 AM 28.7803 -86.9594 298° West 395 455 35,900  Level Jacksonville Center
Thu 08:04:16 AM 28.8353 -87.0683 300° West 395 455 35,900  Level Jacksonville Center
Thu 08:05:16 AM 28.8861 -87.1772 298° West 389 448 35,900  Level Jacksonville Center
Thu 08:06:16 AM 28.9367 -87.2836 299° West 389 448 35,900  Level Jacksonville Center
Thu 08:07:16 AM 28.9872 -87.3881 299° West 389 448 35,900  Level Jacksonville Center
Thu 08:07:53 AM 29.0167 -87.4503 298° West 385 443 35,900  Level Houston Center
Thu 08:08:54 AM 29.0675 -87.5583 298° West 386 444 35,900  Level Houston Center
Thu 08:09:56 AM 29.1178 -87.6667 298° West 385 443 35,900  Level Houston Center
Thu 08:10:57 AM 29.1703 -87.7758 299° West 390 449 35,900  Level Houston Center
Thu 08:11:58 AM 29.2219 -87.8878 298° West 396 456 35,900  Level Houston Center
Thu 08:12:59 AM 29.2736 -87.9975 298° West 392 451 35,900  Level Houston Center
Thu 08:14:00 AM 29.3264 -88.1114 298° West 395 455 35,900 49 Level Houston Center
Thu 08:15:01 AM 29.3803 -88.2283 298° West 394 453 36,000 49 Climbing Houston Center
Thu 08:16:02 AM 29.4311 -88.3386 298° West 392 451 36,000 -49 Level Houston Center
Thu 08:17:03 AM 29.4800 -88.4431 298° West 392 451 35,900 -49 Descending Houston Center
Thu 08:18:05 AM 29.5419 -88.5756 298° West 393 452 35,900  Level Houston Center
Thu 08:19:06 AM 29.5922 -88.6869 297° West 394 453 35,900  Level Houston Center
Thu 08:20:07 AM 29.6425 -88.7978 298° West 393 452 35,900  Level Houston Center
Thu 08:21:09 AM 29.6928 -88.9089 298° West 393 452 35,900  Level Houston Center
Thu 08:22:09 AM 29.7444 -89.0200 298° West 394 453 35,900  Level Houston Center
Thu 08:23:10 AM 29.7936 -89.1308 297° West 390 449 35,900  Level Houston Center
Thu 08:24:12 AM 29.8444 -89.2428 298° West 392 451 35,900  Level Houston Center
Thu 08:25:13 AM 29.8944 -89.3533 298° West 390 449 35,900  Level Houston Center
Thu 08:26:14 AM 29.9439 -89.4653 297° West 391 450 35,900  Level Houston Center
Thu 08:27:15 AM 29.9942 -89.5767 298° West 391 450 35,900  Level Houston Center
Thu 08:28:16 AM 30.0444 -89.6894 297° West 394 453 35,900  Level Houston Center
Thu 08:29:18 AM 30.0939 -89.8033 297° West 394 453 35,900  Level Houston Center
Thu 08:30:19 AM 30.1564 -89.9403 298° West 396 456 35,900  Level Houston Center
Thu 08:31:20 AM 30.2069 -90.0542 297° West 394 453 35,900  Level Houston Center
Thu 08:32:21 AM 30.2569 -90.1692 297° West 396 456 35,900  Level Houston Center
Thu 08:33:24 AM 30.3081 -90.2833 297° West 397 457 35,900  Level Houston Center
Thu 08:34:24 AM 30.3583 -90.3978 297° West 396 456 35,900  Level Houston Center
Thu 08:35:25 AM 30.4072 -90.5125 296° West 395 455 35,900  Level Houston Center
Thu 08:36:27 AM 30.4575 -90.6261 297° West 395 455 35,900 293 Level Houston Center
Thu 08:37:28 AM 30.5069 -90.7389 297° West 393 452 36,500 885 Climbing Houston Center
Thu 08:38:29 AM 30.5539 -90.8511 296° West 386 444 37,700 689 Climbing Houston Center
Thu 08:39:30 AM 30.6025 -90.9625 297° West 389 448 37,900 98 Climbing Houston Center
Thu 08:40:32 AM 30.6511 -91.0739 297° West 387 445 37,900  Level Houston Center
Thu 08:41:33 AM 30.7008 -91.1875 297° West 392 451 37,900 49 Level Houston Center
Thu 08:42:34 AM 30.7575 -91.3158 297° West 390 449 38,000 49 Climbing Houston Center
Thu 08:43:36 AM 30.8028 -91.4269 295° West 383 441 38,000  Level Houston Center
Thu 08:44:37 AM 30.8503 -91.5392 296° West 384 442 38,000  Level Houston Center
Thu 08:45:38 AM 30.9250 -91.6367 312° West 402 463 38,000  Level Houston Center
Thu 08:46:40 AM 31.0014 -91.7386 311° West 416 479 38,000  Level Houston Center
Thu 08:47:41 AM 31.0792 -91.8392 312° West 418 481 38,000  Level Houston Center
Thu 08:48:42 AM 31.1731 -91.9603 312° West 419 482 38,000 -49 Level Houston Center
Thu 08:49:44 AM 31.2397 -92.0447 313° West 418 481 37,900 -49 Descending Houston Center
Thu 08:50:45 AM 31.3364 -92.1642 313° West 422 486 37,900 -197 Level Houston Center
Thu 08:51:46 AM 31.4175 -92.2661 313° West 428 493 37,500 -683 Descending Houston Center
Thu 08:52:48 AM 31.4983 -92.3692 313° West 433 498 36,500 -780 Descending Houston Center
Thu 08:53:49 AM 31.5531 -92.4881 298° West 417 480 35,900 -295 Descending Houston Center
Thu 08:54:50 AM 31.6039 -92.6061 297° West 410 472 35,900  Level Houston Center
Thu 08:55:52 AM 31.6556 -92.7256 297° West 411 473 35,900  Level Houston Center
Thu 08:56:53 AM 31.7081 -92.8478 297° West 418 481 35,900  Level Houston Center
Thu 08:57:55 AM 31.7611 -92.9717 297° West 423 487 35,900 49 Level Houston Center
Thu 08:58:56 AM 31.8186 -93.1056 297° West 422 486 36,000  Climbing Houston Center
Thu 08:59:57 AM 31.8717 -93.2281 297° West 421 484 35,900  Descending Houston Center
Thu 09:00:43 AM 31.9133 -93.3314 295° West 420 483 36,000 57 Climbing Fort Worth Center
Thu 09:01:43 AM 31.9675 -93.4586 297° West 420 483 36,000  Level Fort Worth Center
Thu 09:02:43 AM 32.0217 -93.5836 297° West 425 489 36,000 -50 Level Fort Worth Center
Thu 09:03:44 AM 32.0756 -93.7089 297° West 425 489 35,900  Descending Fort Worth Center
Thu 09:04:43 AM 32.1336 -93.8464 297° West 425 489 36,000 50 Climbing Fort Worth Center
Thu 09:05:43 AM 32.1742 -93.9478 295° West 425 489 36,000  Level Fort Worth Center
Thu 09:06:43 AM 32.2344 -94.0953 296° West 416 479 36,000  Level Fort Worth Center
Thu 09:07:43 AM 32.2833 -94.2164 296° West 421 484 36,000  Level Fort Worth Center
Thu 09:08:43 AM 32.3367 -94.3447 296° West 421 484 36,000  Level Fort Worth Center
Thu 09:09:43 AM 32.3878 -94.4661 297° West 421 484 36,000  Level Fort Worth Center
Thu 09:10:43 AM 32.4408 -94.5950 296° West 421 484 36,000  Level Fort Worth Center
Thu 09:11:43 AM 32.4872 -94.7167 294° West 421 484 36,000  Level Fort Worth Center
Thu 09:12:43 AM 32.5378 -94.8358 297° West 416 479 36,000  Level Fort Worth Center
Thu 09:13:43 AM 32.5861 -94.9578 295° West 416 479 36,000 50 Level Fort Worth Center
Thu 09:14:43 AM 32.6278 -95.0675 294° West 416 479 36,100 550 Climbing Fort Worth Center
Thu 09:15:43 AM 32.6614 -95.1900 288° West 402 463 37,100 850 Climbing Fort Worth Center
Thu 09:16:43 AM 32.6992 -95.3297 288° West 402 463 37,800 450 Climbing Fort Worth Center
Thu 09:17:43 AM 32.7306 -95.4575 286° West 402 463 38,000 100 Climbing Fort Worth Center
Thu 09:18:43 AM 32.7597 -95.5878 285° West 402 463 38,000  Level Fort Worth Center
Thu 09:19:43 AM 32.7883 -95.7008 287° West 402 463 38,000  Level Fort Worth Center
Thu 09:20:43 AM 32.8150 -95.8264 284° West 395 455 38,000  Level Fort Worth Center
Thu 09:21:43 AM 32.8458 -95.9544 286° West 395 455 38,000  Level Fort Worth Center
Thu 09:22:43 AM 32.8786 -96.0800 287° West 395 455 38,000  Level Fort Worth Center
Thu 09:23:43 AM 32.9069 -96.2058 285° West 400 460 38,000  Level Fort Worth Center
Thu 09:24:43 AM 32.9372 -96.3367 285° West 400 460 38,000  Level Fort Worth Center
Thu 09:25:43 AM 32.9678 -96.4775 285° West 400 460 38,000  Level Fort Worth Center
Thu 09:26:43 AM 32.9978 -96.6058 286° West 400 460 38,000  Level Fort Worth Center
Thu 09:27:43 AM 33.0278 -96.7344 286° West 405 466 38,000  Level Fort Worth Center
Thu 09:28:43 AM 33.0575 -96.8631 285° West 405 466 38,000  Level Fort Worth Center
Thu 09:29:43 AM 33.0872 -96.9944 285° West 405 466 38,000  Level Fort Worth Center
Thu 09:30:43 AM 33.1169 -97.1233 285° West 405 466 38,000  Level Fort Worth Center
Thu 09:31:43 AM 33.1483 -97.2522 286° West 410 472 38,000  Level Fort Worth Center
Thu 09:32:43 AM 33.1758 -97.3836 284° West 410 472 38,000  Level Fort Worth Center
Thu 09:33:43 AM 33.2050 -97.5153 285° West 410 472 38,000  Level Fort Worth Center
Thu 09:34:43 AM 33.2339 -97.6419 285° West 410 472 38,000  Level Fort Worth Center
Thu 09:35:43 AM 33.2608 -97.7711 284° West 410 472 38,000  Level Fort Worth Center
Thu 09:36:43 AM 33.2894 -97.9031 285° West 410 472 38,000  Level Fort Worth Center
Thu 09:37:43 AM 33.3161 -98.0325 284° West 416 479 38,000  Level Fort Worth Center
Thu 09:38:43 AM 33.3425 -98.1494 285° West 411 473 38,000  Level Fort Worth Center
Thu 09:39:43 AM 33.3731 -98.2939 284° West 411 473 38,000  Level Fort Worth Center
Thu 09:40:43 AM 33.3992 -98.4136 285° West 417 480 38,000  Level Fort Worth Center
Thu 09:41:43 AM 33.4272 -98.5433 285° West 412 474 38,000  Level Fort Worth Center
Thu 09:42:43 AM 33.4553 -98.6733 285° West 406 467 38,000  Level Fort Worth Center
Thu 09:43:43 AM 33.4831 -98.8008 285° West 406 467 38,000  Level Fort Worth Center
Thu 09:44:43 AM 33.5089 -98.9306 283° West 406 467 38,000  Level Fort Worth Center
Thu 09:45:43 AM 33.5383 -99.0608 285° West 406 467 38,000  Level Fort Worth Center
Thu 09:46:43 AM 33.5617 -99.1883 282° West 406 467 38,000  Level Fort Worth Center
Thu 09:47:43 AM 33.5892 -99.3161 285° West 400 460 38,000  Level Fort Worth Center
Thu 09:48:43 AM 33.6164 -99.4389 285° West 395 455 38,000  Level Fort Worth Center
Thu 09:49:43 AM 33.6394 -99.5617 283° West 395 455 38,000  Level Fort Worth Center
Thu 09:50:43 AM 33.6664 -99.6919 284° West 395 455 38,000  Level Fort Worth Center
Thu 09:51:43 AM 33.6931 -99.8175 284° West 395 455 38,000  Level Fort Worth Center
Thu 09:52:43 AM 33.7178 -99.9481 283° West 395 455 38,000  Level Fort Worth Center
Thu 09:53:43 AM 33.7422 -100.0736 283° West 395 455 38,000  Level Fort Worth Center
Thu 09:54:43 AM 33.7686 -100.2044 284° West 395 455 38,000  Level Fort Worth Center
Thu 09:55:43 AM 33.7928 -100.3353 283° West 395 455 38,000  Level Fort Worth Center
Thu 09:56:43 AM 33.8189 -100.4611 284° West 395 455 38,000  Level Fort Worth Center
Thu 09:57:43 AM 33.8450 -100.5919 284° West 400 460 38,000  Level Fort Worth Center
Thu 09:58:43 AM 33.8708 -100.7231 283° West 400 460 38,000  Level Fort Worth Center
Thu 09:59:43 AM 33.8944 -100.8489 283° West 395 455 38,000  Level Fort Worth Center
Thu 10:00:43 AM 33.9222 -100.9778 285° West 395 455 38,000  Level Fort Worth Center
Thu 10:01:43 AM 33.9475 -101.1164 282° West 406 467 38,000  Level Fort Worth Center
Thu 10:02:43 AM 33.9722 -101.2628 282° West 406 467 38,000  Level Fort Worth Center
Thu 10:03:43 AM 33.9972 -101.3917 283° West 400 460 38,000  Level Fort Worth Center
Thu 10:04:43 AM 34.0203 -101.5181 282° West 390 449 38,000  Level Fort Worth Center
Thu 10:05:43 AM 34.0433 -101.6419 283° West 390 449 38,000  Level Fort Worth Center
Thu 10:06:43 AM 34.0664 -101.7658 283° West 390 449 38,000  Level Fort Worth Center
Thu 10:07:43 AM 34.0911 -101.8925 283° West 390 449 38,000  Level Fort Worth Center
Thu 10:08:43 AM 34.1094 -102.0164 280° West 384 442 38,000  Level Fort Worth Center
Thu 10:09:43 AM 34.1319 -102.1381 283° West 378 435 38,000  Level Fort Worth Center
Thu 10:10:40 AM 34.1533 -102.2461 283° West 375 432 38,000  Level Albuquerque Center
Thu 10:11:42 AM 34.1747 -102.3669 282° West 373 429 38,000  Level Albuquerque Center
Thu 10:12:43 AM 34.1958 -102.4872 282° West 370 426 38,000  Level Albuquerque Center
Thu 10:13:44 AM 34.2172 -102.6036 283° West 371 427 38,000  Level Albuquerque Center
Thu 10:14:46 AM 34.2433 -102.7533 282° West 377 434 38,000  Level Albuquerque Center
Thu 10:15:47 AM 34.2644 -102.8778 282° West 377 434 38,000  Level Albuquerque Center
Thu 10:16:49 AM 34.2867 -103.0025 282° West 378 435 38,000  Level Albuquerque Center
Thu 10:17:50 AM 34.3056 -103.1167 281° West 376 433 38,000  Level Albuquerque Center
Thu 10:18:52 AM 34.3317 -103.2642 282° West 380 437 38,000  Level Albuquerque Center
Thu 10:19:53 AM 34.3528 -103.3894 282° West 377 434 38,000  Level Albuquerque Center
Thu 10:20:55 AM 34.3739 -103.5147 282° West 376 433 38,000  Level Albuquerque Center
Thu 10:21:56 AM 34.3947 -103.6383 282° West 374 430 38,000  Level Albuquerque Center
Thu 10:22:58 AM 34.4139 -103.7631 281° West 372 428 38,000  Level Albuquerque Center
Thu 10:23:59 AM 34.4344 -103.8853 282° West 370 426 38,000  Level Albuquerque Center
Thu 10:25:01 AM 34.4547 -104.0058 282° West 365 420 38,000  Level Albuquerque Center
Thu 10:26:03 AM 34.4747 -104.1269 281° West 363 418 38,000  Level Albuquerque Center
Thu 10:27:04 AM 34.4944 -104.2486 281° West 362 417 38,000  Level Albuquerque Center
Thu 10:28:06 AM 34.5139 -104.3706 281° West 363 418 38,000  Level Albuquerque Center
Thu 10:29:08 AM 34.5336 -104.4928 281° West 365 420 38,000  Level Albuquerque Center
Thu 10:30:09 AM 34.5539 -104.6142 281° West 364 419 38,000  Level Albuquerque Center
Thu 10:31:11 AM 34.5725 -104.7350 281° West 362 417 38,000  Level Albuquerque Center
Thu 10:32:12 AM 34.5953 -104.8769 281° West 362 417 38,000  Level Albuquerque Center
Thu 10:33:14 AM 34.6136 -104.9969 281° West 360 414 38,000  Level Albuquerque Center
Thu 10:34:16 AM 34.6319 -105.1172 281° West 358 412 38,000  Level Albuquerque Center
Thu 10:35:17 AM 34.6503 -105.2364 281° West 357 411 38,000  Level Albuquerque Center
Thu 10:36:19 AM 34.6689 -105.3561 281° West 357 411 38,000  Level Albuquerque Center
Thu 10:37:21 AM 34.6875 -105.4742 281° West 354 407 38,000  Level Albuquerque Center
Thu 10:38:23 AM 34.7050 -105.5925 280° West 353 406 38,000  Level Albuquerque Center
Thu 10:39:24 AM 34.7225 -105.7094 280° West 350 403 38,000  Level Albuquerque Center
Thu 10:40:26 AM 34.7397 -105.8253 280° West 347 399 38,000  Level Albuquerque Center
Thu 10:41:28 AM 34.7575 -105.9428 280° West 349 402 38,000  Level Albuquerque Center
Thu 10:42:29 AM 34.7733 -106.0608 279° West 350 403 38,000  Level Albuquerque Center
Thu 10:43:31 AM 34.7933 -106.1981 280° West 350 403 38,000  Level Albuquerque Center
Thu 10:44:33 AM 34.8086 -106.3003 280° West 348 400 38,000  Level Albuquerque Center
Thu 10:45:35 AM 34.8256 -106.4183 280° West 352 405 38,000  Level Albuquerque Center
Thu 10:46:36 AM 34.8456 -106.5600 280° West 356 410 38,000  Level Albuquerque Center
Thu 10:47:38 AM 34.8592 -106.6789 278° West 367 422 38,000  Level Albuquerque Center
Thu 10:48:40 AM 34.8786 -106.8108 280° West 357 411 38,000  Level Albuquerque Center
Thu 10:49:42 AM 34.8972 -106.9225 282° West 351 404 38,000  Level Albuquerque Center
Thu 10:50:43 AM 34.9125 -107.0378 279° West 359 413 38,000  Level Albuquerque Center
Thu 10:51:45 AM 34.9317 -107.1725 280° West 362 417 38,000  Level Albuquerque Center
Thu 10:52:47 AM 34.9456 -107.2950 278° West 373 429 38,000  Level Albuquerque Center
Thu 10:53:49 AM 34.9625 -107.4186 280° West 370 426 38,000  Level Albuquerque Center
Thu 10:54:51 AM 34.9800 -107.5433 280° West 371 427 38,000  Level Albuquerque Center
Thu 10:55:52 AM 34.9967 -107.6681 279° West 372 428 38,000  Level Albuquerque Center
Thu 10:56:54 AM 35.0119 -107.7933 279° West 374 430 38,000  Level Albuquerque Center
Thu 10:57:56 AM 35.0308 -107.9294 280° West 374 430 38,000  Level Albuquerque Center
Thu 10:58:58 AM 35.0489 -108.0694 279° West 374 430 38,000  Level Albuquerque Center
Thu 10:59:59 AM 35.0647 -108.1894 279° West 373 429 38,000  Level Albuquerque Center
Thu 11:01:01 AM 35.0817 -108.3292 278° West 372 428 38,000  Level Albuquerque Center
Thu 11:02:03 AM 35.0972 -108.4483 279° West 371 427 38,000  Level Albuquerque Center
Thu 11:03:05 AM 35.1147 -108.5867 279° West 370 426 38,000  Level Albuquerque Center
Thu 11:04:06 AM 35.1297 -108.7069 279° West 371 427 38,000  Level Albuquerque Center
Thu 11:05:08 AM 35.1442 -108.8258 278° West 371 427 38,000  Level Albuquerque Center
Thu 11:06:10 AM 35.1614 -108.9647 279° West 370 426 38,000  Level Albuquerque Center
Thu 11:07:12 AM 35.1756 -109.0833 278° West 368 423 38,000  Level Albuquerque Center
Thu 11:08:14 AM 35.1931 -109.2225 279° West 368 423 38,000  Level Albuquerque Center
Thu 11:09:15 AM 35.2064 -109.3406 278° West 367 422 38,000  Level Albuquerque Center
Thu 11:10:17 AM 35.2217 -109.4769 278° West 363 418 38,000  Level Albuquerque Center
Thu 11:11:19 AM 35.2361 -109.5925 279° West 359 413 38,000  Level Albuquerque Center
Thu 11:12:21 AM 35.2492 -109.7100 278° West 362 417 38,000  Level Albuquerque Center
Thu 11:13:23 AM 35.2650 -109.8472 278° West 365 420 38,000  Level Albuquerque Center
Thu 11:14:25 AM 35.2781 -109.9681 278° West 371 427 38,000  Level Albuquerque Center
Thu 11:15:26 AM 35.2944 -110.1033 278° West 365 420 38,000  Level Albuquerque Center
Thu 11:16:28 AM 35.3058 -110.2206 277° West 363 418 38,000  Level Albuquerque Center
Thu 11:17:30 AM 35.3181 -110.3575 276° West 363 418 38,000  Level Albuquerque Center
Thu 11:18:32 AM 35.3306 -110.4769 277° West 368 423 38,000  Level Albuquerque Center
Thu 11:19:34 AM 35.3447 -110.5961 278° West 369 425 38,000  Level Albuquerque Center
Thu 11:20:36 AM 35.3572 -110.7347 276° West 368 423 38,000  Level Albuquerque Center
Thu 11:21:38 AM 35.3700 -110.8553 277° West 371 427 38,000  Level Albuquerque Center
Thu 11:22:40 AM 35.3853 -110.9933 278° West 368 423 38,000  Level Albuquerque Center
Thu 11:23:42 AM 35.3992 -111.1114 278° West 367 422 38,000  Level Albuquerque Center
Thu 11:24:44 AM 35.4122 -111.2478 277° West 362 417 38,000 -1,016 Level Albuquerque Center
Thu 11:25:46 AM 35.4236 -111.3633 277° West 359 413 35,900 -2,000 Descending Albuquerque Center
Thu 11:27:50 AM 35.4483 -111.5983 277° West 353 406 31,800 -1,903 Descending Albuquerque Center
Thu 11:28:52 AM 35.4611 -111.7322 277° West 337 388 30,000 -871 Descending Albuquerque Center
Thu 11:29:54 AM 35.4717 -111.8478 276° West 338 389 30,000  Level Albuquerque Center
Thu 11:30:56 AM 35.4844 -111.9700 277° West 352 405 30,000  Level Albuquerque Center
Thu 11:31:58 AM 35.4964 -112.0928 277° West 360 414 30,000  Level Albuquerque Center
Thu 11:33:00 AM 35.5078 -112.2156 277° West 362 417 30,000  Level Albuquerque Center
Thu 11:34:02 AM 35.5214 -112.3625 277° West 364 419 30,000  Level Albuquerque Center
Thu 11:35:14 AM 35.5350 -112.5094 277° West 365 420 30,000  Level Los Angeles Center
Thu 11:36:16 AM 35.5464 -112.6383 276° West 366 421 30,000  Level Los Angeles Center
Thu 11:37:18 AM 35.5578 -112.7628 276° West 366 421 30,000  Level Los Angeles Center
Thu 11:38:20 AM 35.5689 -112.8889 276° West 370 426 30,000  Level Los Angeles Center
Thu 11:39:22 AM 35.5808 -113.0239 276° West 368 423 30,000  Level Los Angeles Center
Thu 11:40:24 AM 35.5911 -113.1467 276° West 362 417 30,000 -48 Level Los Angeles Center
Thu 11:41:26 AM 35.6025 -113.2700 277° West 363 418 29,900 -823 Descending Los Angeles Center
Thu 11:42:28 AM 35.6114 -113.3864 275° West 352 405 28,300 -1,872 Descending Los Angeles Center
Thu 11:43:31 AM 35.6222 -113.5194 276° West 331 381 26,000 -2,016 Descending Los Angeles Center
Thu 11:44:33 AM 35.6353 -113.6244 279° West 318 366 24,100 -1,694 Descending Los Angeles Center
Thu 11:45:35 AM 35.6511 -113.7253 281° West 305 351 22,500 -1,694 Descending Los Angeles Center
Thu 11:46:37 AM 35.6661 -113.8314 280° West 314 361 20,600 -1,790 Descending Los Angeles Center
Thu 11:47:39 AM 35.6803 -113.9394 279° West 322 371 18,800 -1,645 Descending Los Angeles Center
Thu 11:48:41 AM 35.6956 -114.0436 280° West 313 360 17,200 -1,790 Descending Los Angeles Center
Thu 11:49:43 AM 35.7139 -114.1764 280° West 315 362 15,100 -1,977 Descending Los Angeles Center
Thu 11:50:09 AM 35.7236 -114.2231 284° West 323 372 14,300 -1,800 Descending Los Angeles Center
Thu 11:50:33 AM 35.7286 -114.2639 279° West 318 366 13,600 -1,326 Descending Los Angeles Center
Thu 11:51:35 AM 35.7639 -114.3528 296° West 305 351 12,400 -1,082 Descending Los Angeles Center
Thu 11:52:35 AM 35.8228 -114.4233 316° Northwest 299 344 11,400 -1,041 Descending Los Angeles Center
Thu 11:53:36 AM 35.8825 -114.4961 315° West 299 344 10,300 -1,026 Descending Los Angeles Center
Thu 11:53:51 AM 35.8917 -114.5072 316° Northwest 298 343 10,100 -1,100 Descending Los Angeles Center
Thu 11:54:36 AM 35.9422 -114.5692 315° West 283 326 9,200 -968 Descending Los Angeles Center
Thu 11:54:53 AM 35.9458 -114.5742 312° West 282 325 9,100 -984 Descending Los Angeles Center
Thu 11:55:37 AM 35.9789 -114.6472 299° West 270 311 8,200 -1,065 Descending Los Angeles Center
Thu 11:55:55 AM 35.9872 -114.6731 292° West 273 314 8,000 -885 Descending Los Angeles Center
Thu 11:56:38 AM 36.0042 -114.7317 290° West 262 302 7,300 -871 Descending Los Angeles Center
Thu 11:56:57 AM 36.0125 -114.7550 294° West 260 299 7,100 -590 Descending Los Angeles Center
Thu 11:57:39 AM 36.0303 -114.8108 292° West 252 290 6,700 -581 Descending Los Angeles Center
Thu 11:57:59 AM 36.0378 -114.8319 294° West 253 291 6,500 -716 Descending Los Angeles Center
Thu 11:58:46 AM 36.0503 -114.8919 284° West 221 254 5,900 -871 Descending Los Angeles Center
Thu 11:59:01 AM 36.0556 -114.9033 300° West 236 272 5,600 -1,222 Descending Los Angeles Center
Thu 11:59:40 AM 36.0619 -114.9547 279° West 207 238 4,800 -1,065 Descending Los Angeles Center
Thu 12:00:03 PM 36.0658 -114.9706 287° West 217 250 4,500 -885 Descending Los Angeles Center
Thu 12:00:41 PM 36.0736 -115.0175 282° West 182 209 3,900 -952 Descending Los Angeles Center
Thu 12:01:06 PM 36.0761 -115.0317 282° West 199 229 3,500 -885 Descending Los Angeles Center
Thu 12:01:42 PM 36.0722 -115.0711 263° West 149 171 3,000 -774 Descending Los Angeles Center
Thu 12:02:08 PM 36.0736 -115.0822 279° West 168 193 2,700 -682 Descending Los Angeles Center
Thu 12:03:10 PM 36.0742 -115.1403 271° West 148 170 2,000 -677 Descending Los Angeles Center
Thu 12:05:00 PM 36.0667 -115.1500 270° West  Level FlightAware Approximate

Login

Don't have an account? Register now (free) for customized features, flight alerts, and more!